RPC1404 RPLL-RPLL
Flight info
| Callsign | RPC1404 |
|---|---|
| Flight time | 1h 6m |
| Altitude | 1500 |
| Route | RPLL RPLL |
| Aircraft | C172/L-SADE1E2E3GHIJ3J5M1P2RWXY/LB2D1 |
Departure
| Time | 2026-05-06 15:41 |
|---|---|
| Airport | Ninoy Aquino International Airport (RPLL) |
Arrival
| Time | 2026-05-06 16:47 |
|---|---|
| Airport | Ninoy Aquino International Airport (RPLL) |
| Time | Latitude | Longitude | Altitude | Speed | Heading |
|---|---|---|---|---|---|
| 2026-05-06 15:40 | 14.48575 | 121.00646 | 998 ft | 89 kts | 234° |
| 2026-05-06 15:41 | 14.48247 | 121.00107 | 956 ft | 91 kts | 238° |
| 2026-05-06 15:41 | 14.47855 | 120.99580 | 858 ft | 94 kts | 207° |
| 2026-05-06 15:41 | 14.47206 | 120.99464 | 791 ft | 92 kts | 180° |
| 2026-05-06 15:41 | 14.46581 | 120.99429 | 780 ft | 89 kts | 179° |
| 2026-05-06 15:42 | 14.45974 | 120.99374 | 809 ft | 86 kts | 182° |
| 2026-05-06 15:42 | 14.45378 | 120.99303 | 860 ft | 83 kts | 176° |
| 2026-05-06 15:42 | 14.44912 | 120.99558 | 880 ft | 78 kts | 110° |
| 2026-05-06 15:42 | 14.45027 | 121.00056 | 887 ft | 77 kts | 36° |
| 2026-05-06 15:43 | 14.45544 | 120.99976 | 906 ft | 84 kts | 314° |
| 2026-05-06 15:43 | 14.45611 | 120.99380 | 875 ft | 91 kts | 238° |
| 2026-05-06 15:43 | 14.45257 | 120.98855 | 880 ft | 92 kts | 239° |
| 2026-05-06 15:43 | 14.45314 | 120.98251 | 909 ft | 83 kts | 319° |
| 2026-05-06 15:44 | 14.45806 | 120.97942 | 850 ft | 79 kts | 333° |
| 2026-05-06 15:44 | 14.46298 | 120.97691 | 795 ft | 79 kts | 337° |
| 2026-05-06 15:44 | 14.46785 | 120.97481 | 783 ft | 69 kts | 342° |
| 2026-05-06 15:44 | 14.47243 | 120.97271 | 718 ft | 75 kts | 333° |
| 2026-05-06 15:45 | 14.47698 | 120.97036 | 705 ft | 69 kts | 341° |
| 2026-05-06 15:45 | 14.48153 | 120.97125 | 642 ft | 67 kts | 48° |
| 2026-05-06 15:45 | 14.48387 | 120.97517 | 626 ft | 62 kts | 61° |
| 2026-05-06 15:45 | 14.48612 | 120.97889 | 612 ft | 62 kts | 56° |
| 2026-05-06 15:46 | 14.48857 | 120.98278 | 586 ft | 68 kts | 58° |
| 2026-05-06 15:46 | 14.49081 | 120.98723 | 574 ft | 69 kts | 64° |
| 2026-05-06 15:46 | 14.49316 | 120.99171 | 474 ft | 73 kts | 62° |
| 2026-05-06 15:46 | 14.49563 | 120.99634 | 329 ft | 72 kts | 59° |
| 2026-05-06 15:47 | 14.49792 | 121.00075 | 181 ft | 68 kts | 65° |
| 2026-05-06 15:47 | 14.50028 | 121.00472 | 83 ft | 56 kts | 62° |
| 2026-05-06 15:47 | 14.50215 | 121.00787 | 77 ft | 63 kts | 60° |
| 2026-05-06 15:47 | 14.50473 | 121.01254 | 146 ft | 81 kts | 64° |
| 2026-05-06 15:48 | 14.50720 | 121.01787 | 299 ft | 81 kts | 82° |
| 2026-05-06 15:48 | 14.50531 | 121.02274 | 521 ft | 75 kts | 130° |
| 2026-05-06 15:48 | 14.50044 | 121.02484 | 681 ft | 80 kts | 175° |
| 2026-05-06 15:48 | 14.49535 | 121.02187 | 778 ft | 94 kts | 237° |
| 2026-05-06 15:49 | 14.49252 | 121.01520 | 767 ft | 106 kts | 248° |
| 2026-05-06 15:49 | 14.48915 | 121.00819 | 621 ft | 106 kts | 239° |
| 2026-05-06 15:49 | 14.48542 | 121.00204 | 454 ft | 93 kts | 245° |
| 2026-05-06 15:49 | 14.48680 | 120.99661 | 332 ft | 80 kts | 335° |
| 2026-05-06 15:50 | 14.49191 | 120.99511 | 248 ft | 76 kts | 6° |
| 2026-05-06 15:50 | 14.49616 | 120.99751 | 212 ft | 68 kts | 55° |
| 2026-05-06 15:50 | 14.49870 | 121.00171 | 123 ft | 70 kts | 64° |
| 2026-05-06 15:50 | 14.50082 | 121.00565 | 82 ft | 51 kts | 62° |
| 2026-05-06 15:51 | 14.50267 | 121.00877 | 77 ft | 65 kts | 61° |
| 2026-05-06 15:51 | 14.50525 | 121.01315 | 190 ft | 75 kts | 56° |
| 2026-05-06 15:51 | 14.50808 | 121.01791 | 348 ft | 78 kts | 61° |
| 2026-05-06 15:51 | 14.51093 | 121.02264 | 485 ft | 81 kts | 57° |
| 2026-05-06 15:52 | 14.51399 | 121.02742 | 660 ft | 79 kts | 55° |
| 2026-05-06 15:52 | 14.51649 | 121.03233 | 831 ft | 79 kts | 58° |
| 2026-05-06 15:52 | 14.51899 | 121.03745 | 998 ft | 78 kts | 61° |
| 2026-05-06 15:52 | 14.52147 | 121.04240 | 1162 ft | 77 kts | 71° |
| 2026-05-06 15:53 | 14.52144 | 121.04819 | 1270 ft | 84 kts | 101° |
| 2026-05-06 15:53 | 14.51820 | 121.05321 | 1439 ft | 86 kts | 138° |
| 2026-05-06 15:53 | 14.51184 | 121.05450 | 1498 ft | 100 kts | 185° |
| 2026-05-06 15:53 | 14.50527 | 121.05124 | 1561 ft | 108 kts | 219° |
| 2026-05-06 15:54 | 14.50069 | 121.04490 | 1654 ft | 108 kts | 240° |
| 2026-05-06 15:54 | 14.49716 | 121.03805 | 1750 ft | 109 kts | 244° |
| 2026-05-06 15:54 | 14.49381 | 121.03072 | 1647 ft | 120 kts | 247° |
| 2026-05-06 15:54 | 14.49073 | 121.02295 | 1520 ft | 112 kts | 252° |
| 2026-05-06 15:55 | 14.48811 | 121.01560 | 1388 ft | 101 kts | 245° |
| 2026-05-06 15:55 | 14.48369 | 121.01032 | 1263 ft | 95 kts | 215° |
| 2026-05-06 15:55 | 14.47795 | 121.00735 | 1141 ft | 91 kts | 193° |
| 2026-05-06 15:55 | 14.47189 | 121.00617 | 1041 ft | 85 kts | 187° |
| 2026-05-06 15:56 | 14.46614 | 121.00513 | 973 ft | 79 kts | 184° |
| 2026-05-06 15:56 | 14.46073 | 121.00410 | 927 ft | 81 kts | 186° |
| 2026-05-06 15:56 | 14.45538 | 121.00272 | 924 ft | 79 kts | 211° |
| 2026-05-06 15:56 | 14.45312 | 120.99768 | 894 ft | 78 kts | 273° |
| 2026-05-06 15:57 | 14.45561 | 120.99302 | 858 ft | 79 kts | 328° |
| 2026-05-06 15:57 | 14.46056 | 120.99036 | 860 ft | 82 kts | 336° |
| 2026-05-06 15:57 | 14.46563 | 120.98782 | 908 ft | 80 kts | 331° |
| 2026-05-06 15:57 | 14.47056 | 120.98508 | 934 ft | 81 kts | 334° |
| 2026-05-06 15:58 | 14.47552 | 120.98217 | 975 ft | 80 kts | 333° |
| 2026-05-06 15:58 | 14.48079 | 120.97958 | 957 ft | 86 kts | 339° |
| 2026-05-06 15:58 | 14.48646 | 120.97707 | 962 ft | 87 kts | 342° |
| 2026-05-06 15:58 | 14.49204 | 120.97534 | 1038 ft | 79 kts | 348° |
| 2026-05-06 15:59 | 14.49679 | 120.97728 | 973 ft | 84 kts | 58° |
| 2026-05-06 15:59 | 14.50096 | 120.98132 | 943 ft | 89 kts | 20° |
| 2026-05-06 15:59 | 14.50673 | 120.98321 | 848 ft | 84 kts | 24° |
| 2026-05-06 15:59 | 14.51196 | 120.98522 | 702 ft | 78 kts | 18° |
| 2026-05-06 16:00 | 14.51746 | 120.98596 | 573 ft | 77 kts | 6° |
| 2026-05-06 16:00 | 14.52269 | 120.98486 | 504 ft | 79 kts | 336° |
| 2026-05-06 16:00 | 14.52764 | 120.98212 | 602 ft | 81 kts | 326° |
| 2026-05-06 16:00 | 14.53238 | 120.97835 | 689 ft | 85 kts | 326° |
| 2026-05-06 16:01 | 14.53725 | 120.97503 | 728 ft | 83 kts | 330° |
| 2026-05-06 16:01 | 14.54215 | 120.97182 | 749 ft | 84 kts | 329° |
| 2026-05-06 16:01 | 14.54679 | 120.96830 | 791 ft | 83 kts | 323° |
| 2026-05-06 16:01 | 14.54945 | 120.96278 | 785 ft | 88 kts | 272° |
| 2026-05-06 16:02 | 14.54959 | 120.95656 | 825 ft | 88 kts | 268° |
| 2026-05-06 16:02 | 14.54675 | 120.95160 | 901 ft | 79 kts | 202° |
| 2026-05-06 16:02 | 14.54157 | 120.95196 | 930 ft | 76 kts | 137° |
| 2026-05-06 16:02 | 14.53979 | 120.95706 | 895 ft | 81 kts | 82° |
| 2026-05-06 16:03 | 14.54147 | 120.96258 | 905 ft | 78 kts | 72° |
| 2026-05-06 16:03 | 14.54306 | 120.96788 | 881 ft | 75 kts | 70° |
| 2026-05-06 16:03 | 14.54448 | 120.97259 | 923 ft | 66 kts | 69° |
| 2026-05-06 16:03 | 14.54540 | 120.97736 | 872 ft | 69 kts | 89° |
| 2026-05-06 16:04 | 14.54373 | 120.98212 | 814 ft | 73 kts | 120° |
| 2026-05-06 16:04 | 14.54049 | 120.98604 | 749 ft | 73 kts | 129° |
| 2026-05-06 16:04 | 14.53702 | 120.98980 | 687 ft | 67 kts | 130° |
| 2026-05-06 16:04 | 14.53366 | 120.99346 | 558 ft | 72 kts | 128° |
| 2026-05-06 16:05 | 14.53011 | 120.99725 | 406 ft | 76 kts | 132° |
| 2026-05-06 16:05 | 14.52631 | 121.00115 | 250 ft | 74 kts | 133° |
| 2026-05-06 16:05 | 14.52299 | 121.00464 | 105 ft | 64 kts | 130° |
| 2026-05-06 16:05 | 14.52033 | 121.00750 | 77 ft | 58 kts | 131° |
| 2026-05-06 16:06 | 14.51675 | 121.01106 | 139 ft | 78 kts | 134° |
| 2026-05-06 16:06 | 14.51267 | 121.01503 | 292 ft | 80 kts | 133° |
| 2026-05-06 16:06 | 14.50870 | 121.01901 | 472 ft | 78 kts | 136° |
| 2026-05-06 16:06 | 14.50445 | 121.02261 | 632 ft | 78 kts | 140° |
| 2026-05-06 16:07 | 14.50000 | 121.02610 | 774 ft | 80 kts | 143° |
| 2026-05-06 16:07 | 14.49551 | 121.02959 | 946 ft | 79 kts | 140° |
| 2026-05-06 16:07 | 14.49079 | 121.03320 | 1011 ft | 90 kts | 140° |
| 2026-05-06 16:07 | 14.48589 | 121.03699 | 1197 ft | 85 kts | 136° |
| 2026-05-06 16:08 | 14.48094 | 121.04039 | 1359 ft | 86 kts | 162° |
| 2026-05-06 16:08 | 14.47504 | 121.03893 | 1471 ft | 94 kts | 221° |
| 2026-05-06 16:08 | 14.47220 | 121.03266 | 1560 ft | 96 kts | 274° |
| 2026-05-06 16:08 | 14.47434 | 121.02585 | 1598 ft | 103 kts | 306° |
| 2026-05-06 16:09 | 14.47570 | 121.02383 | 1609 ft | 104 kts | 312° |
| 2026-05-06 16:09 | 14.47725 | 121.02191 | 1614 ft | 106 kts | 317° |
| 2026-05-06 16:10 | 14.50185 | 120.99937 | 1255 ft | 93 kts | 328° |
| 2026-05-06 16:10 | 14.50695 | 120.99564 | 1213 ft | 90 kts | 330° |
| 2026-05-06 16:10 | 14.51245 | 120.99191 | 1049 ft | 100 kts | 335° |
| 2026-05-06 16:10 | 14.51829 | 120.99185 | 950 ft | 81 kts | 37° |
| 2026-05-06 16:11 | 14.52289 | 120.99605 | 573 ft | 95 kts | 51° |
| 2026-05-06 16:11 | 14.52522 | 121.00182 | 317 ft | 85 kts | 108° |
| 2026-05-06 16:11 | 14.52135 | 121.00631 | 91 ft | 78 kts | 130° |
| 2026-05-06 16:11 | 14.51826 | 121.00964 | 77 ft | 54 kts | 134° |
| 2026-05-06 16:12 | 14.51602 | 121.01194 | 92 ft | 75 kts | 136° |
| 2026-05-06 16:12 | 14.51473 | 121.01311 | 153 ft | 74 kts | 140° |
| 2026-05-06 16:12 | 14.51097 | 121.01690 | 310 ft | 76 kts | 135° |
| 2026-05-06 16:13 | 14.49986 | 121.02728 | 705 ft | 70 kts | 140° |
| 2026-05-06 16:13 | 14.49601 | 121.03005 | 779 ft | 71 kts | 136° |
| 2026-05-06 16:13 | 14.49108 | 121.03155 | 834 ft | 78 kts | 180° |
| 2026-05-06 16:13 | 14.48648 | 121.02820 | 884 ft | 84 kts | 234° |
| 2026-05-06 16:14 | 14.48376 | 121.02317 | 964 ft | 83 kts | 234° |
| 2026-05-06 16:14 | 14.48065 | 121.01812 | 1071 ft | 80 kts | 236° |
| 2026-05-06 16:14 | 14.47644 | 121.01453 | 1056 ft | 80 kts | 181° |
| 2026-05-06 16:14 | 14.47317 | 121.01738 | 1112 ft | 64 kts | 83° |
| 2026-05-06 16:15 | 14.47678 | 121.01978 | 1051 ft | 80 kts | 342° |
| 2026-05-06 16:15 | 14.47917 | 121.01495 | 1067 ft | 82 kts | 251° |
| 2026-05-06 16:15 | 14.47495 | 121.01154 | 1086 ft | 77 kts | 172° |
| 2026-05-06 16:15 | 14.47110 | 121.01449 | 1088 ft | 72 kts | 105° |
| 2026-05-06 16:16 | 14.47246 | 121.01919 | 1092 ft | 72 kts | 37° |
| 2026-05-06 16:16 | 14.47782 | 121.01942 | 1021 ft | 85 kts | 342° |
| 2026-05-06 16:16 | 14.48197 | 121.01514 | 1022 ft | 90 kts | 292° |
| 2026-05-06 16:16 | 14.48221 | 121.00855 | 1025 ft | 90 kts | 248° |
| 2026-05-06 16:17 | 14.47801 | 121.00457 | 989 ft | 80 kts | 198° |
| 2026-05-06 16:17 | 14.47427 | 121.00051 | 924 ft | 81 kts | 246° |
| 2026-05-06 16:17 | 14.47300 | 120.99475 | 823 ft | 85 kts | 276° |
| 2026-05-06 16:17 | 14.47618 | 120.98980 | 707 ft | 85 kts | 330° |
| 2026-05-06 16:18 | 14.48122 | 120.98659 | 646 ft | 83 kts | 336° |
| 2026-05-06 16:18 | 14.48641 | 120.98460 | 625 ft | 74 kts | 7° |
| 2026-05-06 16:18 | 14.49032 | 120.98779 | 539 ft | 74 kts | 41° |
| 2026-05-06 16:18 | 14.49356 | 120.99226 | 413 ft | 80 kts | 71° |
| 2026-05-06 16:19 | 14.49592 | 120.99734 | 274 ft | 77 kts | 68° |
| 2026-05-06 16:19 | 14.49860 | 121.00187 | 130 ft | 71 kts | 71° |
| 2026-05-06 16:19 | 14.50096 | 121.00583 | 77 ft | 54 kts | 60° |
| 2026-05-06 16:19 | 14.50334 | 121.00985 | 163 ft | 70 kts | 57° |
| 2026-05-06 16:20 | 14.50606 | 121.01411 | 310 ft | 75 kts | 60° |
| 2026-05-06 16:20 | 14.50884 | 121.01872 | 473 ft | 77 kts | 58° |
| 2026-05-06 16:20 | 14.51085 | 121.02360 | 639 ft | 77 kts | 84° |
| 2026-05-06 16:20 | 14.50903 | 121.02881 | 770 ft | 84 kts | 132° |
| 2026-05-06 16:21 | 14.50344 | 121.03167 | 910 ft | 89 kts | 154° |
| 2026-05-06 16:21 | 14.49767 | 121.03344 | 1004 ft | 81 kts | 156° |
| 2026-05-06 16:21 | 14.49243 | 121.03509 | 1035 ft | 79 kts | 174° |
| 2026-05-06 16:21 | 14.48748 | 121.03278 | 1026 ft | 85 kts | 230° |
| 2026-05-06 16:22 | 14.48490 | 121.02724 | 1065 ft | 86 kts | 244° |
| 2026-05-06 16:22 | 14.48253 | 121.02129 | 1182 ft | 88 kts | 246° |
| 2026-05-06 16:22 | 14.47995 | 121.01541 | 1249 ft | 89 kts | 242° |
| 2026-05-06 16:22 | 14.47704 | 121.00972 | 1292 ft | 91 kts | 244° |
| 2026-05-06 16:23 | 14.47469 | 121.00373 | 1380 ft | 88 kts | 243° |
| 2026-05-06 16:23 | 14.47224 | 120.99787 | 1462 ft | 86 kts | 247° |
| 2026-05-06 16:23 | 14.46984 | 120.99184 | 1469 ft | 94 kts | 251° |
| 2026-05-06 16:23 | 14.46765 | 120.98544 | 1507 ft | 92 kts | 248° |
| 2026-05-06 16:24 | 14.46429 | 120.97963 | 1541 ft | 92 kts | 236° |
| 2026-05-06 16:24 | 14.46039 | 120.97425 | 1562 ft | 94 kts | 232° |
| 2026-05-06 16:24 | 14.45661 | 120.96882 | 1593 ft | 93 kts | 239° |
| 2026-05-06 16:24 | 14.45623 | 120.96245 | 1577 ft | 93 kts | 300° |
| 2026-05-06 16:25 | 14.46149 | 120.95862 | 1481 ft | 98 kts | 352° |
| 2026-05-06 16:25 | 14.46782 | 120.95991 | 1518 ft | 89 kts | 25° |
| 2026-05-06 16:25 | 14.47363 | 120.96270 | 1449 ft | 95 kts | 27° |
| 2026-05-06 16:25 | 14.47965 | 120.96560 | 1405 ft | 93 kts | 21° |
| 2026-05-06 16:26 | 14.48604 | 120.96712 | 1358 ft | 95 kts | 12° |
| 2026-05-06 16:26 | 14.49261 | 120.96827 | 1361 ft | 95 kts | 9° |
| 2026-05-06 16:26 | 14.49928 | 120.96851 | 1326 ft | 97 kts | 359° |
| 2026-05-06 16:26 | 14.50605 | 120.96755 | 1263 ft | 98 kts | 348° |
| 2026-05-06 16:27 | 14.51248 | 120.96544 | 1238 ft | 92 kts | 343° |
| 2026-05-06 16:27 | 14.51865 | 120.96320 | 1193 ft | 94 kts | 342° |
| 2026-05-06 16:27 | 14.52482 | 120.96080 | 1210 ft | 94 kts | 342° |
| 2026-05-06 16:27 | 14.53100 | 120.95866 | 1228 ft | 92 kts | 343° |
| 2026-05-06 16:28 | 14.53716 | 120.95670 | 1229 ft | 91 kts | 346° |
| 2026-05-06 16:28 | 14.54344 | 120.95500 | 1217 ft | 93 kts | 348° |
| 2026-05-06 16:28 | 14.54965 | 120.95326 | 1204 ft | 95 kts | 344° |
| 2026-05-06 16:28 | 14.55598 | 120.95110 | 1225 ft | 93 kts | 343° |
| 2026-05-06 16:29 | 14.56206 | 120.94873 | 1218 ft | 94 kts | 342° |
| 2026-05-06 16:29 | 14.56825 | 120.94666 | 1241 ft | 91 kts | 344° |
| 2026-05-06 16:29 | 14.57428 | 120.94460 | 1264 ft | 89 kts | 344° |
| 2026-05-06 16:29 | 14.58011 | 120.94265 | 1275 ft | 89 kts | 347° |
| 2026-05-06 16:30 | 14.58623 | 120.94139 | 1306 ft | 85 kts | 355° |
| 2026-05-06 16:30 | 14.59023 | 120.94105 | 1324 ft | 85 kts | 359° |
| 2026-05-06 16:30 | 14.59793 | 120.94089 | 1400 ft | 81 kts | 1° |
| 2026-05-06 16:30 | 14.60377 | 120.94068 | 1423 ft | 83 kts | 359° |
| 2026-05-06 16:31 | 14.60957 | 120.94022 | 1443 ft | 84 kts | 355° |
| 2026-05-06 16:31 | 14.61543 | 120.93980 | 1453 ft | 87 kts | 359° |
| 2026-05-06 16:31 | 14.62157 | 120.93973 | 1477 ft | 87 kts | 2° |
| 2026-05-06 16:31 | 14.62778 | 120.93972 | 1469 ft | 90 kts | 1° |
| 2026-05-06 16:32 | 14.63413 | 120.93963 | 1476 ft | 90 kts | 0° |
| 2026-05-06 16:32 | 14.64059 | 120.93979 | 1458 ft | 93 kts | 2° |
| 2026-05-06 16:32 | 14.64716 | 120.94022 | 1427 ft | 94 kts | 7° |
| 2026-05-06 16:32 | 14.65369 | 120.94093 | 1429 ft | 88 kts | 9° |
| 2026-05-06 16:33 | 14.65958 | 120.94257 | 1392 ft | 89 kts | 36° |
| 2026-05-06 16:33 | 14.66309 | 120.94806 | 1291 ft | 94 kts | 59° |
| 2026-05-06 16:33 | 14.66755 | 120.95284 | 1275 ft | 90 kts | 17° |
| 2026-05-06 16:34 | 14.66881 | 120.94464 | 1317 ft | 97 kts | 187° |
| 2026-05-06 16:34 | 14.66194 | 120.94365 | 1367 ft | 99 kts | 188° |
| 2026-05-06 16:34 | 14.65531 | 120.94224 | 1434 ft | 99 kts | 186° |
| 2026-05-06 16:34 | 14.64853 | 120.94116 | 1482 ft | 96 kts | 184° |
| 2026-05-06 16:35 | 14.64165 | 120.94025 | 1439 ft | 102 kts | 185° |
| 2026-05-06 16:35 | 14.63454 | 120.93918 | 1440 ft | 101 kts | 187° |
| 2026-05-06 16:35 | 14.62777 | 120.93810 | 1432 ft | 98 kts | 185° |
| 2026-05-06 16:35 | 14.62090 | 120.93713 | 1393 ft | 99 kts | 185° |
| 2026-05-06 16:36 | 14.61399 | 120.93638 | 1356 ft | 99 kts | 180° |
| 2026-05-06 16:36 | 14.60712 | 120.93588 | 1335 ft | 98 kts | 189° |
| 2026-05-06 16:36 | 14.60101 | 120.93261 | 1300 ft | 100 kts | 223° |
| 2026-05-06 16:36 | 14.59821 | 120.92619 | 1292 ft | 101 kts | 268° |
| 2026-05-06 16:37 | 14.59831 | 120.91893 | 1316 ft | 98 kts | 275° |
| 2026-05-06 16:37 | 14.59858 | 120.91207 | 1393 ft | 93 kts | 273° |
| 2026-05-06 16:37 | 14.59868 | 120.90528 | 1435 ft | 93 kts | 270° |
| 2026-05-06 16:37 | 14.59868 | 120.89861 | 1465 ft | 93 kts | 281° |
| 2026-05-06 16:38 | 14.59745 | 120.89226 | 1492 ft | 98 kts | 228° |
| 2026-05-06 16:38 | 14.59146 | 120.88975 | 1469 ft | 95 kts | 171° |
| 2026-05-06 16:38 | 14.58612 | 120.89314 | 1420 ft | 87 kts | 117° |
| 2026-05-06 16:38 | 14.58544 | 120.89885 | 1421 ft | 80 kts | 62° |
| 2026-05-06 16:39 | 14.59010 | 120.90148 | 1421 ft | 82 kts | 355° |
| 2026-05-06 16:39 | 14.59468 | 120.89810 | 1435 ft | 86 kts | 295° |
| 2026-05-06 16:39 | 14.59471 | 120.89188 | 1421 ft | 92 kts | 253° |
| 2026-05-06 16:39 | 14.59075 | 120.88699 | 1437 ft | 88 kts | 206° |
| 2026-05-06 16:40 | 14.58494 | 120.88657 | 1432 ft | 83 kts | 148° |
| 2026-05-06 16:40 | 14.58207 | 120.88930 | 1389 ft | 85 kts | 123° |
| 2026-05-06 16:40 | 14.57787 | 120.89378 | 1342 ft | 86 kts | 131° |
| 2026-05-06 16:40 | 14.57446 | 120.89869 | 1334 ft | 82 kts | 98° |
| 2026-05-06 16:41 | 14.57617 | 120.90642 | 1214 ft | 87 kts | 63° |
| 2026-05-06 16:41 | 14.57878 | 120.91215 | 1160 ft | 91 kts | 66° |
| 2026-05-06 16:41 | 14.58120 | 120.91830 | 1138 ft | 91 kts | 70° |
| 2026-05-06 16:41 | 14.58305 | 120.92432 | 1158 ft | 84 kts | 64° |
| 2026-05-06 16:42 | 14.58556 | 120.92980 | 1143 ft | 83 kts | 67° |
| 2026-05-06 16:42 | 14.58751 | 120.93537 | 1149 ft | 81 kts | 84° |
| 2026-05-06 16:42 | 14.58465 | 120.94004 | 1152 ft | 83 kts | 133° |
| 2026-05-06 16:42 | 14.58024 | 120.94421 | 1185 ft | 89 kts | 132° |
| 2026-05-06 16:43 | 14.57570 | 120.94842 | 1255 ft | 84 kts | 133° |
| 2026-05-06 16:43 | 14.57290 | 120.95093 | 1288 ft | 77 kts | 132° |
| 2026-05-06 16:43 | 14.57160 | 120.95218 | 1294 ft | 76 kts | 130° |
| 2026-05-06 16:43 | 14.57032 | 120.95353 | 1293 ft | 76 kts | 127° |
| 2026-05-06 16:44 | 14.56788 | 120.95602 | 1305 ft | 73 kts | 131° |
| 2026-05-06 16:44 | 14.55755 | 120.96748 | 1251 ft | 77 kts | 123° |
| 2026-05-06 16:44 | 14.55417 | 120.97158 | 1167 ft | 75 kts | 127° |
| 2026-05-06 16:44 | 14.55052 | 120.97552 | 1042 ft | 76 kts | 128° |
| 2026-05-06 16:45 | 14.54685 | 120.97961 | 919 ft | 79 kts | 130° |
| 2026-05-06 16:45 | 14.54301 | 120.98379 | 755 ft | 79 kts | 128° |
| 2026-05-06 16:45 | 14.53916 | 120.98765 | 611 ft | 76 kts | 129° |
| 2026-05-06 16:45 | 14.53545 | 120.99152 | 474 ft | 73 kts | 129° |
| 2026-05-06 16:46 | 14.53211 | 120.99526 | 380 ft | 66 kts | 131° |
| 2026-05-06 16:46 | 14.52883 | 120.99862 | 280 ft | 66 kts | 131° |
| 2026-05-06 16:46 | 14.52570 | 121.00187 | 198 ft | 62 kts | 126° |
| 2026-05-06 16:46 | 14.52275 | 121.00492 | 96 ft | 54 kts | 134° |
| 2026-05-06 16:47 | 14.52117 | 121.00645 | 77 ft | 8 kts | 204° |
| 2026-05-06 16:47 | 14.52051 | 121.00626 | 77 ft | 11 kts | 188° |
| 2026-05-06 16:47 | 14.51991 | 121.00617 | 77 ft | 8 kts | 185° |
| 2026-05-06 16:47 | 14.51946 | 121.00607 | 77 ft | 10 kts | 190° |
| 2026-05-06 16:48 | 14.51878 | 121.00596 | 77 ft | 6 kts | 176° |
| 2026-05-06 16:48 | 14.51862 | 121.00600 | 77 ft | 8 kts | 151° |
| 2026-05-06 16:48 | 14.51814 | 121.00589 | 77 ft | 4 kts | 10° |
| 2026-05-06 16:48 | 14.51824 | 121.00585 | 77 ft | 0 kts | 329° |